sensor_id;sensor_type;location;lat;lon;timestamp;P1;durP1;ratioP1;P2;durP2;ratioP2
12052;SDS011;6087;48.982;12.064;2022-10-16T00:00:40;4.15;;;3.47;;
12052;SDS011;6087;48.982;12.064;2022-10-16T00:03:08;6.20;;;3.67;;
12052;SDS011;6087;48.982;12.064;2022-10-16T00:05:38;3.22;;;2.92;;
12052;SDS011;6087;48.982;12.064;2022-10-16T00:08:06;5.20;;;3.63;;
12052;SDS011;6087;48.982;12.064;2022-10-16T00:10:34;3.92;;;3.60;;
12052;SDS011;6087;48.982;12.064;2022-10-16T00:13:01;3.72;;;3.38;;
12052;SDS011;6087;48.982;12.064;2022-10-16T00:15:29;5.15;;;3.15;;
12052;SDS011;6087;48.982;12.064;2022-10-16T00:17:58;3.50;;;3.20;;
12052;SDS011;6087;48.982;12.064;2022-10-16T00:20:25;3.05;;;2.67;;
12052;SDS011;6087;48.982;12.064;2022-10-16T00:22:52;4.22;;;3.40;;
12052;SDS011;6087;48.982;12.064;2022-10-16T00:25:19;6.30;;;3.72;;
12052;SDS011;6087;48.982;12.064;2022-10-16T00:27:46;7.82;;;3.22;;
12052;SDS011;6087;48.982;12.064;2022-10-16T00:30:13;3.50;;;2.63;;
12052;SDS011;6087;48.982;12.064;2022-10-16T00:32:41;3.80;;;3.28;;
12052;SDS011;6087;48.982;12.064;2022-10-16T00:35:08;4.35;;;3.95;;
12052;SDS011;6087;48.982;12.064;2022-10-16T00:37:35;4.18;;;3.65;;
12052;SDS011;6087;48.982;12.064;2022-10-16T00:40:02;5.78;;;3.33;;
12052;SDS011;6087;48.982;12.064;2022-10-16T00:42:29;3.92;;;3.53;;
12052;SDS011;6087;48.982;12.064;2022-10-16T00:44:57;6.55;;;3.08;;
12052;SDS011;6087;48.982;12.064;2022-10-16T00:47:24;7.93;;;3.80;;
12052;SDS011;6087;48.982;12.064;2022-10-16T00:49:57;3.33;;;3.03;;
12052;SDS011;6087;48.982;12.064;2022-10-16T00:52:27;3.42;;;3.13;;
12052;SDS011;6087;48.982;12.064;2022-10-16T00:54:54;3.47;;;3.05;;
12052;SDS011;6087;48.982;12.064;2022-10-16T00:57:22;3.80;;;3.50;;
12052;SDS011;6087;48.982;12.064;2022-10-16T00:59:50;4.30;;;3.90;;
12052;SDS011;6087;48.982;12.064;2022-10-16T01:02:17;5.15;;;3.60;;
12052;SDS011;6087;48.982;12.064;2022-10-16T01:04:44;4.38;;;3.95;;
12052;SDS011;6087;48.982;12.064;2022-10-16T01:07:16;5.55;;;4.25;;
12052;SDS011;6087;48.982;12.064;2022-10-16T01:09:55;6.85;;;4.38;;
12052;SDS011;6087;48.982;12.064;2022-10-16T01:12:34;6.05;;;3.78;;
12052;SDS011;6087;48.982;12.064;2022-10-16T01:15:08;6.47;;;5.03;;
12052;SDS011;6087;48.982;12.064;2022-10-16T01:17:41;5.22;;;4.72;;
12052;SDS011;6087;48.982;12.064;2022-10-16T01:20:14;6.35;;;4.07;;
12052;SDS011;6087;48.982;12.064;2022-10-16T01:22:56;5.63;;;4.65;;
12052;SDS011;6087;48.982;12.064;2022-10-16T01:25:31;7.63;;;4.35;;
12052;SDS011;6087;48.982;12.064;2022-10-16T01:28:07;4.82;;;4.20;;
12052;SDS011;6087;48.982;12.064;2022-10-16T01:30:38;5.45;;;4.80;;
12052;SDS011;6087;48.982;12.064;2022-10-16T01:33:09;8.75;;;4.82;;
12052;SDS011;6087;48.982;12.064;2022-10-16T01:35:41;7.53;;;4.60;;
12052;SDS011;6087;48.982;12.064;2022-10-16T01:38:12;5.72;;;4.50;;
12052;SDS011;6087;48.982;12.064;2022-10-16T01:40:45;5.38;;;4.18;;
12052;SDS011;6087;48.982;12.064;2022-10-16T01:43:17;7.80;;;4.65;;
12052;SDS011;6087;48.982;12.064;2022-10-16T01:45:48;5.30;;;4.60;;
12052;SDS011;6087;48.982;12.064;2022-10-16T01:48:17;4.57;;;4.28;;
12052;SDS011;6087;48.982;12.064;2022-10-16T01:50:49;5.80;;;4.53;;
12052;SDS011;6087;48.982;12.064;2022-10-16T01:53:21;4.35;;;3.70;;
12052;SDS011;6087;48.982;12.064;2022-10-16T01:55:50;5.47;;;4.50;;
12052;SDS011;6087;48.982;12.064;2022-10-16T01:58:22;4.93;;;4.00;;
12052;SDS011;6087;48.982;12.064;2022-10-16T02:00:51;4.15;;;3.80;;
12052;SDS011;6087;48.982;12.064;2022-10-16T02:03:19;5.85;;;4.10;;
12052;SDS011;6087;48.982;12.064;2022-10-16T02:05:47;4.90;;;3.75;;
12052;SDS011;6087;48.982;12.064;2022-10-16T02:08:17;4.47;;;4.07;;
12052;SDS011;6087;48.982;12.064;2022-10-16T02:10:44;5.72;;;3.88;;
12052;SDS011;6087;48.982;12.064;2022-10-16T02:13:12;6.03;;;4.20;;
12052;SDS011;6087;48.982;12.064;2022-10-16T02:15:44;4.35;;;3.95;;
12052;SDS011;6087;48.982;12.064;2022-10-16T02:18:11;4.30;;;3.92;;
12052;SDS011;6087;48.982;12.064;2022-10-16T02:20:40;6.25;;;4.10;;
12052;SDS011;6087;48.982;12.064;2022-10-16T02:23:21;4.20;;;3.80;;
12052;SDS011;6087;48.982;12.064;2022-10-16T02:25:55;4.80;;;3.63;;
12052;SDS011;6087;48.982;12.064;2022-10-16T02:28:26;4.65;;;4.07;;
12052;SDS011;6087;48.982;12.064;2022-10-16T02:30:59;6.18;;;3.53;;
12052;SDS011;6087;48.982;12.064;2022-10-16T02:33:29;5.22;;;3.88;;
12052;SDS011;6087;48.982;12.064;2022-10-16T02:35:58;4.22;;;3.83;;
12052;SDS011;6087;48.982;12.064;2022-10-16T02:38:25;5.93;;;4.72;;
12052;SDS011;6087;48.982;12.064;2022-10-16T02:40:55;4.32;;;3.92;;
12052;SDS011;6087;48.982;12.064;2022-10-16T02:43:22;4.03;;;3.60;;
12052;SDS011;6087;48.982;12.064;2022-10-16T02:45:50;4.35;;;3.92;;
12052;SDS011;6087;48.982;12.064;2022-10-16T02:48:19;7.80;;;4.28;;
12052;SDS011;6087;48.982;12.064;2022-10-16T02:50:45;5.10;;;4.25;;
12052;SDS011;6087;48.982;12.064;2022-10-16T02:53:12;8.50;;;3.72;;
12052;SDS011;6087;48.982;12.064;2022-10-16T02:55:39;5.72;;;3.85;;
12052;SDS011;6087;48.982;12.064;2022-10-16T02:58:09;4.40;;;4.00;;
12052;SDS011;6087;48.982;12.064;2022-10-16T03:00:36;4.75;;;3.55;;
12052;SDS011;6087;48.982;12.064;2022-10-16T03:03:03;5.57;;;3.78;;
12052;SDS011;6087;48.982;12.064;2022-10-16T03:05:31;8.35;;;4.00;;
12052;SDS011;6087;48.982;12.064;2022-10-16T03:07:58;6.45;;;4.50;;
12052;SDS011;6087;48.982;12.064;2022-10-16T03:10:25;7.20;;;4.10;;
12052;SDS011;6087;48.982;12.064;2022-10-16T03:12:52;8.32;;;4.03;;
12052;SDS011;6087;48.982;12.064;2022-10-16T03:15:19;6.70;;;4.18;;
12052;SDS011;6087;48.982;12.064;2022-10-16T03:17:46;6.07;;;3.90;;
12052;SDS011;6087;48.982;12.064;2022-10-16T03:20:13;6.88;;;3.55;;
12052;SDS011;6087;48.982;12.064;2022-10-16T03:22:42;6.05;;;3.90;;
12052;SDS011;6087;48.982;12.064;2022-10-16T03:25:08;7.20;;;3.78;;
12052;SDS011;6087;48.982;12.064;2022-10-16T03:27:35;4.70;;;4.30;;
12052;SDS011;6087;48.982;12.064;2022-10-16T03:30:02;4.25;;;3.85;;
12052;SDS011;6087;48.982;12.064;2022-10-16T03:32:30;4.10;;;3.65;;
12052;SDS011;6087;48.982;12.064;2022-10-16T03:34:57;10.70;;;4.75;;
12052;SDS011;6087;48.982;12.064;2022-10-16T03:37:24;3.83;;;3.63;;
12052;SDS011;6087;48.982;12.064;2022-10-16T03:39:52;5.82;;;4.10;;
12052;SDS011;6087;48.982;12.064;2022-10-16T03:42:19;4.55;;;4.15;;
12052;SDS011;6087;48.982;12.064;2022-10-16T03:44:46;4.00;;;3.70;;
12052;SDS011;6087;48.982;12.064;2022-10-16T03:47:13;6.47;;;3.47;;
12052;SDS011;6087;48.982;12.064;2022-10-16T03:49:40;4.35;;;3.97;;
12052;SDS011;6087;48.982;12.064;2022-10-16T03:52:07;5.75;;;3.83;;
12052;SDS011;6087;48.982;12.064;2022-10-16T03:54:34;3.80;;;3.40;;
12052;SDS011;6087;48.982;12.064;2022-10-16T03:57:02;4.75;;;4.35;;
12052;SDS011;6087;48.982;12.064;2022-10-16T03:59:29;3.88;;;3.60;;
12052;SDS011;6087;48.982;12.064;2022-10-16T04:01:56;6.78;;;3.95;;
12052;SDS011;6087;48.982;12.064;2022-10-16T04:04:23;4.90;;;3.83;;
12052;SDS011;6087;48.982;12.064;2022-10-16T04:06:50;6.00;;;3.63;;
12052;SDS011;6087;48.982;12.064;2022-10-16T04:09:18;4.00;;;3.70;;
12052;SDS011;6087;48.982;12.064;2022-10-16T04:11:45;3.70;;;3.50;;
12052;SDS011;6087;48.982;12.064;2022-10-16T04:14:13;3.60;;;3.30;;
12052;SDS011;6087;48.982;12.064;2022-10-16T04:16:40;3.60;;;3.30;;
12052;SDS011;6087;48.982;12.064;2022-10-16T04:19:07;3.65;;;3.35;;
12052;SDS011;6087;48.982;12.064;2022-10-16T04:21:34;3.30;;;3.10;;
12052;SDS011;6087;48.982;12.064;2022-10-16T04:24:02;4.70;;;3.45;;
12052;SDS011;6087;48.982;12.064;2022-10-16T04:26:29;3.92;;;3.63;;
12052;SDS011;6087;48.982;12.064;2022-10-16T04:28:56;3.60;;;2.80;;
12052;SDS011;6087;48.982;12.064;2022-10-16T04:31:24;3.47;;;3.22;;
12052;SDS011;6087;48.982;12.064;2022-10-16T04:33:51;3.35;;;3.08;;
12052;SDS011;6087;48.982;12.064;2022-10-16T04:36:18;9.40;;;3.67;;
12052;SDS011;6087;48.982;12.064;2022-10-16T04:38:45;4.18;;;3.03;;
12052;SDS011;6087;48.982;12.064;2022-10-16T04:41:12;3.83;;;3.47;;
12052;SDS011;6087;48.982;12.064;2022-10-16T04:43:39;3.78;;;3.50;;
12052;SDS011;6087;48.982;12.064;2022-10-16T04:46:05;3.80;;;3.10;;
12052;SDS011;6087;48.982;12.064;2022-10-16T04:48:34;5.78;;;3.42;;
12052;SDS011;6087;48.982;12.064;2022-10-16T04:51:01;4.18;;;3.17;;
12052;SDS011;6087;48.982;12.064;2022-10-16T04:53:28;3.35;;;3.00;;
12052;SDS011;6087;48.982;12.064;2022-10-16T04:55:54;4.95;;;4.13;;
12052;SDS011;6087;48.982;12.064;2022-10-16T04:58:22;3.75;;;3.45;;
12052;SDS011;6087;48.982;12.064;2022-10-16T05:00:49;4.85;;;3.50;;
12052;SDS011;6087;48.982;12.064;2022-10-16T05:03:16;5.35;;;3.50;;
12052;SDS011;6087;48.982;12.064;2022-10-16T05:05:44;5.80;;;3.83;;
12052;SDS011;6087;48.982;12.064;2022-10-16T05:08:13;4.07;;;3.65;;
12052;SDS011;6087;48.982;12.064;2022-10-16T05:10:41;4.18;;;3.88;;
12052;SDS011;6087;48.982;12.064;2022-10-16T05:13:09;4.00;;;3.60;;
12052;SDS011;6087;48.982;12.064;2022-10-16T05:15:36;3.85;;;3.55;;
12052;SDS011;6087;48.982;12.064;2022-10-16T05:18:03;3.65;;;3.45;;
12052;SDS011;6087;48.982;12.064;2022-10-16T05:20:30;4.68;;;3.97;;
12052;SDS011;6087;48.982;12.064;2022-10-16T05:22:59;3.92;;;3.63;;
12052;SDS011;6087;48.982;12.064;2022-10-16T05:25:26;3.63;;;3.42;;
12052;SDS011;6087;48.982;12.064;2022-10-16T05:27:53;3.25;;;3.05;;
12052;SDS011;6087;48.982;12.064;2022-10-16T05:30:20;4.57;;;4.15;;
12052;SDS011;6087;48.982;12.064;2022-10-16T05:32:47;4.28;;;3.97;;
12052;SDS011;6087;48.982;12.064;2022-10-16T05:35:15;4.43;;;4.03;;
12052;SDS011;6087;48.982;12.064;2022-10-16T05:37:42;5.93;;;4.22;;
12052;SDS011;6087;48.982;12.064;2022-10-16T05:40:11;3.83;;;3.58;;
12052;SDS011;6087;48.982;12.064;2022-10-16T05:42:39;4.13;;;3.42;;
12052;SDS011;6087;48.982;12.064;2022-10-16T05:45:06;3.60;;;3.30;;
12052;SDS011;6087;48.982;12.064;2022-10-16T05:47:35;3.78;;;3.47;;
12052;SDS011;6087;48.982;12.064;2022-10-16T05:50:02;9.57;;;4.05;;
12052;SDS011;6087;48.982;12.064;2022-10-16T05:52:30;4.05;;;3.38;;
12052;SDS011;6087;48.982;12.064;2022-10-16T05:54:57;4.43;;;4.03;;
12052;SDS011;6087;48.982;12.064;2022-10-16T05:57:25;4.07;;;3.08;;
12052;SDS011;6087;48.982;12.064;2022-10-16T05:59:52;4.25;;;3.85;;
12052;SDS011;6087;48.982;12.064;2022-10-16T06:02:19;5.82;;;4.30;;
12052;SDS011;6087;48.982;12.064;2022-10-16T06:04:46;4.50;;;4.13;;
12052;SDS011;6087;48.982;12.064;2022-10-16T06:07:13;4.28;;;3.67;;
12052;SDS011;6087;48.982;12.064;2022-10-16T06:09:40;3.80;;;3.50;;
12052;SDS011;6087;48.982;12.064;2022-10-16T06:12:06;4.13;;;3.72;;
12052;SDS011;6087;48.982;12.064;2022-10-16T06:14:35;4.03;;;3.65;;
12052;SDS011;6087;48.982;12.064;2022-10-16T06:17:02;5.30;;;4.28;;
12052;SDS011;6087;48.982;12.064;2022-10-16T06:19:29;6.78;;;4.10;;
12052;SDS011;6087;48.982;12.064;2022-10-16T06:21:56;4.45;;;4.05;;
12052;SDS011;6087;48.982;12.064;2022-10-16T06:24:24;5.90;;;4.03;;
12052;SDS011;6087;48.982;12.064;2022-10-16T06:26:51;4.32;;;3.92;;
12052;SDS011;6087;48.982;12.064;2022-10-16T06:29:18;7.65;;;4.35;;
12052;SDS011;6087;48.982;12.064;2022-10-16T06:31:46;4.90;;;4.20;;
12052;SDS011;6087;48.982;12.064;2022-10-16T06:34:13;4.85;;;4.38;;
12052;SDS011;6087;48.982;12.064;2022-10-16T06:36:40;6.40;;;4.43;;
12052;SDS011;6087;48.982;12.064;2022-10-16T06:39:08;5.03;;;4.53;;
12052;SDS011;6087;48.982;12.064;2022-10-16T06:41:35;8.07;;;4.43;;
12052;SDS011;6087;48.982;12.064;2022-10-16T06:44:04;4.53;;;4.13;;
12052;SDS011;6087;48.982;12.064;2022-10-16T06:46:32;4.85;;;4.45;;
12052;SDS011;6087;48.982;12.064;2022-10-16T06:49:00;6.57;;;5.15;;
12052;SDS011;6087;48.982;12.064;2022-10-16T06:51:27;6.25;;;5.03;;
12052;SDS011;6087;48.982;12.064;2022-10-16T06:53:55;5.85;;;4.72;;
12052;SDS011;6087;48.982;12.064;2022-10-16T06:56:23;5.40;;;4.65;;
12052;SDS011;6087;48.982;12.064;2022-10-16T06:58:51;7.13;;;5.15;;
12052;SDS011;6087;48.982;12.064;2022-10-16T07:01:20;5.50;;;4.97;;
12052;SDS011;6087;48.982;12.064;2022-10-16T07:03:47;5.00;;;4.05;;
12052;SDS011;6087;48.982;12.064;2022-10-16T07:06:16;5.75;;;5.25;;
12052;SDS011;6087;48.982;12.064;2022-10-16T07:08:45;4.82;;;4.30;;
12052;SDS011;6087;48.982;12.064;2022-10-16T07:11:13;6.28;;;4.55;;
12052;SDS011;6087;48.982;12.064;2022-10-16T07:13:42;5.75;;;4.85;;
12052;SDS011;6087;48.982;12.064;2022-10-16T07:16:10;6.53;;;5.80;;
12052;SDS011;6087;48.982;12.064;2022-10-16T07:18:38;5.07;;;4.57;;
12052;SDS011;6087;48.982;12.064;2022-10-16T07:21:06;5.63;;;5.15;;
12052;SDS011;6087;48.982;12.064;2022-10-16T07:23:35;5.10;;;4.60;;
12052;SDS011;6087;48.982;12.064;2022-10-16T07:26:02;4.88;;;4.35;;
12052;SDS011;6087;48.982;12.064;2022-10-16T07:28:30;5.28;;;4.75;;
12052;SDS011;6087;48.982;12.064;2022-10-16T07:30:59;7.70;;;4.68;;
12052;SDS011;6087;48.982;12.064;2022-10-16T07:33:27;6.60;;;4.75;;
12052;SDS011;6087;48.982;12.064;2022-10-16T07:35:54;5.22;;;4.50;;
12052;SDS011;6087;48.982;12.064;2022-10-16T07:38:21;5.03;;;4.35;;
12052;SDS011;6087;48.982;12.064;2022-10-16T07:40:55;6.82;;;4.82;;
12052;SDS011;6087;48.982;12.064;2022-10-16T07:43:23;6.07;;;4.88;;
12052;SDS011;6087;48.982;12.064;2022-10-16T07:45:50;6.57;;;4.65;;
12052;SDS011;6087;48.982;12.064;2022-10-16T07:48:17;4.97;;;4.55;;
12052;SDS011;6087;48.982;12.064;2022-10-16T07:50:45;6.07;;;4.38;;
12052;SDS011;6087;48.982;12.064;2022-10-16T07:53:12;6.68;;;4.30;;
12052;SDS011;6087;48.982;12.064;2022-10-16T07:55:39;5.18;;;4.35;;
12052;SDS011;6087;48.982;12.064;2022-10-16T07:58:07;4.88;;;4.07;;
12052;SDS011;6087;48.982;12.064;2022-10-16T08:00:35;4.80;;;4.30;;
12052;SDS011;6087;48.982;12.064;2022-10-16T08:03:03;5.07;;;4.63;;
12052;SDS011;6087;48.982;12.064;2022-10-16T08:05:31;11.50;;;5.28;;
12052;SDS011;6087;48.982;12.064;2022-10-16T08:07:59;4.20;;;3.90;;
12052;SDS011;6087;48.982;12.064;2022-10-16T08:10:28;7.38;;;4.30;;
12052;SDS011;6087;48.982;12.064;2022-10-16T08:12:56;4.00;;;3.63;;
12052;SDS011;6087;48.982;12.064;2022-10-16T08:15:25;4.45;;;3.65;;
12052;SDS011;6087;48.982;12.064;2022-10-16T08:17:55;4.07;;;3.53;;
12052;SDS011;6087;48.982;12.064;2022-10-16T08:20:24;5.43;;;3.47;;
12052;SDS011;6087;48.982;12.064;2022-10-16T08:22:51;3.80;;;3.47;;
12052;SDS011;6087;48.982;12.064;2022-10-16T08:25:19;3.80;;;3.38;;
12052;SDS011;6087;48.982;12.064;2022-10-16T08:27:46;4.18;;;3.78;;
12052;SDS011;6087;48.982;12.064;2022-10-16T08:30:13;5.57;;;3.50;;
12052;SDS011;6087;48.982;12.064;2022-10-16T08:32:41;4.43;;;3.95;;
12052;SDS011;6087;48.982;12.064;2022-10-16T08:35:09;4.72;;;3.53;;
12052;SDS011;6087;48.982;12.064;2022-10-16T08:37:36;4.82;;;3.50;;
12052;SDS011;6087;48.982;12.064;2022-10-16T08:40:04;3.60;;;3.38;;
12052;SDS011;6087;48.982;12.064;2022-10-16T08:42:37;4.40;;;3.78;;
12052;SDS011;6087;48.982;12.064;2022-10-16T08:45:27;3.38;;;3.08;;
12052;SDS011;6087;48.982;12.064;2022-10-16T08:48:11;3.92;;;3.50;;
12052;SDS011;6087;48.982;12.064;2022-10-16T08:50:45;4.20;;;3.83;;
12052;SDS011;6087;48.982;12.064;2022-10-16T08:53:16;3.60;;;2.70;;
12052;SDS011;6087;48.982;12.064;2022-10-16T08:55:49;5.75;;;3.50;;
12052;SDS011;6087;48.982;12.064;2022-10-16T08:58:18;3.25;;;2.95;;
12052;SDS011;6087;48.982;12.064;2022-10-16T09:00:47;3.88;;;3.50;;
12052;SDS011;6087;48.982;12.064;2022-10-16T09:03:21;4.30;;;3.90;;
12052;SDS011;6087;48.982;12.064;2022-10-16T09:05:57;4.00;;;3.60;;
12052;SDS011;6087;48.982;12.064;2022-10-16T09:08:36;5.15;;;3.30;;
12052;SDS011;6087;48.982;12.064;2022-10-16T09:11:13;3.70;;;3.25;;
12052;SDS011;6087;48.982;12.064;2022-10-16T09:13:48;3.80;;;3.50;;
12052;SDS011;6087;48.982;12.064;2022-10-16T09:16:22;4.97;;;3.65;;
12052;SDS011;6087;48.982;12.064;2022-10-16T09:18:56;3.65;;;3.35;;
12052;SDS011;6087;48.982;12.064;2022-10-16T09:21:29;3.42;;;3.13;;
12052;SDS011;6087;48.982;12.064;2022-10-16T09:23:57;2.90;;;2.70;;
12052;SDS011;6087;48.982;12.064;2022-10-16T09:26:26;6.10;;;3.70;;
12052;SDS011;6087;48.982;12.064;2022-10-16T09:28:53;4.15;;;3.25;;
12052;SDS011;6087;48.982;12.064;2022-10-16T09:31:20;3.47;;;3.17;;
12052;SDS011;6087;48.982;12.064;2022-10-16T09:33:50;3.30;;;3.00;;
12052;SDS011;6087;48.982;12.064;2022-10-16T09:36:21;6.10;;;3.53;;
12052;SDS011;6087;48.982;12.064;2022-10-16T09:39:00;4.05;;;3.42;;
12052;SDS011;6087;48.982;12.064;2022-10-16T09:41:29;5.72;;;3.47;;
12052;SDS011;6087;48.982;12.064;2022-10-16T09:43:56;4.65;;;3.13;;
12052;SDS011;6087;48.982;12.064;2022-10-16T09:46:26;3.17;;;2.88;;
12052;SDS011;6087;48.982;12.064;2022-10-16T09:48:54;3.63;;;3.33;;
12052;SDS011;6087;48.982;12.064;2022-10-16T09:51:26;4.22;;;2.75;;
12052;SDS011;6087;48.982;12.064;2022-10-16T09:53:54;3.22;;;2.90;;
12052;SDS011;6087;48.982;12.064;2022-10-16T09:56:23;6.72;;;3.08;;
12052;SDS011;6087;48.982;12.064;2022-10-16T09:58:52;3.25;;;2.53;;
12052;SDS011;6087;48.982;12.064;2022-10-16T10:01:20;3.33;;;2.80;;
12052;SDS011;6087;48.982;12.064;2022-10-16T10:03:50;3.00;;;2.80;;
12052;SDS011;6087;48.982;12.064;2022-10-16T10:06:28;3.13;;;2.83;;
12052;SDS011;6087;48.982;12.064;2022-10-16T10:09:00;2.72;;;2.53;;
12052;SDS011;6087;48.982;12.064;2022-10-16T10:11:40;3.85;;;2.78;;
12052;SDS011;6087;48.982;12.064;2022-10-16T10:17:09;4.00;;;3.60;;
12052;SDS011;6087;48.982;12.064;2022-10-16T10:19:40;3.13;;;2.45;;
12052;SDS011;6087;48.982;12.064;2022-10-16T10:22:18;6.53;;;2.80;;
12052;SDS011;6087;48.982;12.064;2022-10-16T10:27:53;3.13;;;2.35;;
12052;SDS011;6087;48.982;12.064;2022-10-16T10:30:32;4.50;;;2.63;;
12052;SDS011;6087;48.982;12.064;2022-10-16T10:33:11;3.47;;;2.30;;
12052;SDS011;6087;48.982;12.064;2022-10-16T10:35:46;2.45;;;2.20;;
12052;SDS011;6087;48.982;12.064;2022-10-16T10:38:24;2.95;;;2.55;;
12052;SDS011;6087;48.982;12.064;2022-10-16T10:40:57;2.55;;;2.35;;
12052;SDS011;6087;48.982;12.064;2022-10-16T10:43:40;4.88;;;2.15;;
12052;SDS011;6087;48.982;12.064;2022-10-16T10:46:17;2.40;;;2.20;;
12052;SDS011;6087;48.982;12.064;2022-10-16T10:49:03;2.22;;;2.00;;
12052;SDS011;6087;48.982;12.064;2022-10-16T10:51:44;4.22;;;2.50;;
12052;SDS011;6087;48.982;12.064;2022-10-16T10:54:22;2.13;;;1.88;;
12052;SDS011;6087;48.982;12.064;2022-10-16T10:56:56;2.50;;;2.30;;
12052;SDS011;6087;48.982;12.064;2022-10-16T11:02:21;4.32;;;2.85;;
12052;SDS011;6087;48.982;12.064;2022-10-16T11:04:56;2.35;;;2.15;;
12052;SDS011;6087;48.982;12.064;2022-10-16T11:07:33;2.80;;;2.13;;
12052;SDS011;6087;48.982;12.064;2022-10-16T11:10:09;3.65;;;1.95;;
12052;SDS011;6087;48.982;12.064;2022-10-16T11:12:44;2.72;;;2.40;;
12052;SDS011;6087;48.982;12.064;2022-10-16T11:15:15;2.28;;;2.08;;
12052;SDS011;6087;48.982;12.064;2022-10-16T11:17:47;3.03;;;2.28;;
12052;SDS011;6087;48.982;12.064;2022-10-16T11:20:18;2.20;;;2.00;;
12052;SDS011;6087;48.982;12.064;2022-10-16T11:22:50;3.28;;;2.00;;
12052;SDS011;6087;48.982;12.064;2022-10-16T11:25:23;1.95;;;1.85;;
12052;SDS011;6087;48.982;12.064;2022-10-16T11:27:54;2.28;;;1.95;;
12052;SDS011;6087;48.982;12.064;2022-10-16T11:30:25;3.58;;;1.75;;
12052;SDS011;6087;48.982;12.064;2022-10-16T11:32:58;2.75;;;2.13;;
12052;SDS011;6087;48.982;12.064;2022-10-16T11:35:33;2.58;;;1.92;;
12052;SDS011;6087;48.982;12.064;2022-10-16T11:38:09;2.38;;;1.90;;
12052;SDS011;6087;48.982;12.064;2022-10-16T11:40:43;3.92;;;2.00;;
12052;SDS011;6087;48.982;12.064;2022-10-16T11:43:15;2.97;;;2.00;;
12052;SDS011;6087;48.982;12.064;2022-10-16T11:45:49;3.72;;;1.95;;
12052;SDS011;6087;48.982;12.064;2022-10-16T11:48:21;2.78;;;1.90;;
12052;SDS011;6087;48.982;12.064;2022-10-16T11:50:53;6.68;;;1.77;;
12052;SDS011;6087;48.982;12.064;2022-10-16T11:53:24;2.92;;;1.92;;
12052;SDS011;6087;48.982;12.064;2022-10-16T11:56:04;6.85;;;2.15;;
12052;SDS011;6087;48.982;12.064;2022-10-16T11:58:32;2.92;;;1.65;;
12052;SDS011;6087;48.982;12.064;2022-10-16T12:01:06;4.07;;;1.90;;
12052;SDS011;6087;48.982;12.064;2022-10-16T12:03:45;2.75;;;1.45;;
12052;SDS011;6087;48.982;12.064;2022-10-16T12:06:23;1.90;;;1.70;;
12052;SDS011;6087;48.982;12.064;2022-10-16T12:08:57;2.50;;;1.77;;
12052;SDS011;6087;48.982;12.064;2022-10-16T12:11:37;3.40;;;2.08;;
12052;SDS011;6087;48.982;12.064;2022-10-16T12:14:18;2.08;;;1.88;;
12052;SDS011;6087;48.982;12.064;2022-10-16T12:17:03;1.70;;;1.58;;
12052;SDS011;6087;48.982;12.064;2022-10-16T12:19:56;4.85;;;1.90;;
12052;SDS011;6087;48.982;12.064;2022-10-16T12:22:25;2.00;;;1.77;;
12052;SDS011;6087;48.982;12.064;2022-10-16T12:24:55;1.63;;;1.52;;
12052;SDS011;6087;48.982;12.064;2022-10-16T12:27:25;2.92;;;1.70;;
12052;SDS011;6087;48.982;12.064;2022-10-16T12:29:55;4.60;;;1.85;;
12052;SDS011;6087;48.982;12.064;2022-10-16T12:32:27;4.30;;;1.60;;
12052;SDS011;6087;48.982;12.064;2022-10-16T12:34:56;4.45;;;1.58;;
12052;SDS011;6087;48.982;12.064;2022-10-16T12:37:25;1.42;;;1.20;;
12052;SDS011;6087;48.982;12.064;2022-10-16T12:39:54;1.80;;;1.60;;
12052;SDS011;6087;48.982;12.064;2022-10-16T12:42:31;1.50;;;1.40;;
12052;SDS011;6087;48.982;12.064;2022-10-16T12:45:00;1.48;;;1.38;;
12052;SDS011;6087;48.982;12.064;2022-10-16T12:47:46;1.67;;;1.20;;
12052;SDS011;6087;48.982;12.064;2022-10-16T12:50:28;1.48;;;1.35;;
12052;SDS011;6087;48.982;12.064;2022-10-16T12:52:57;1.52;;;1.42;;
12052;SDS011;6087;48.982;12.064;2022-10-16T12:55:24;2.13;;;1.30;;
12052;SDS011;6087;48.982;12.064;2022-10-16T13:01:04;3.60;;;1.00;;
12052;SDS011;6087;48.982;12.064;2022-10-16T13:03:48;1.40;;;1.30;;
12052;SDS011;6087;48.982;12.064;2022-10-16T13:06:41;2.47;;;1.17;;
12052;SDS011;6087;48.982;12.064;2022-10-16T13:09:19;2.20;;;1.30;;
12052;SDS011;6087;48.982;12.064;2022-10-16T13:12:00;2.95;;;1.25;;
12052;SDS011;6087;48.982;12.064;2022-10-16T13:17:52;1.25;;;1.15;;
12052;SDS011;6087;48.982;12.064;2022-10-16T13:20:26;1.10;;;1.10;;
12052;SDS011;6087;48.982;12.064;2022-10-16T13:23:02;1.42;;;1.33;;
12052;SDS011;6087;48.982;12.064;2022-10-16T13:25:44;1.40;;;1.23;;
12052;SDS011;6087;48.982;12.064;2022-10-16T13:28:22;1.00;;;1.00;;
12052;SDS011;6087;48.982;12.064;2022-10-16T13:30:56;1.98;;;1.15;;
12052;SDS011;6087;48.982;12.064;2022-10-16T13:33:30;1.98;;;1.25;;
12052;SDS011;6087;48.982;12.064;2022-10-16T13:35:59;1.20;;;1.10;;
12052;SDS011;6087;48.982;12.064;2022-10-16T13:38:27;1.73;;;1.35;;
12052;SDS011;6087;48.982;12.064;2022-10-16T13:40:58;1.27;;;1.13;;
12052;SDS011;6087;48.982;12.064;2022-10-16T13:43:31;1.80;;;1.30;;
12052;SDS011;6087;48.982;12.064;2022-10-16T13:46:01;0.90;;;0.90;;
12052;SDS011;6087;48.982;12.064;2022-10-16T13:48:32;1.10;;;1.10;;
12052;SDS011;6087;48.982;12.064;2022-10-16T13:51:04;1.15;;;1.02;;
12052;SDS011;6087;48.982;12.064;2022-10-16T13:53:33;1.55;;;1.15;;
12052;SDS011;6087;48.982;12.064;2022-10-16T13:56:03;3.45;;;1.10;;
12052;SDS011;6087;48.982;12.064;2022-10-16T13:58:32;0.77;;;0.77;;
12052;SDS011;6087;48.982;12.064;2022-10-16T14:01:00;0.80;;;0.75;;
12052;SDS011;6087;48.982;12.064;2022-10-16T14:03:32;1.48;;;0.82;;
12052;SDS011;6087;48.982;12.064;2022-10-16T14:06:01;1.35;;;1.20;;
12052;SDS011;6087;48.982;12.064;2022-10-16T14:08:30;1.33;;;1.20;;
12052;SDS011;6087;48.982;12.064;2022-10-16T14:10:58;3.03;;;1.17;;
12052;SDS011;6087;48.982;12.064;2022-10-16T14:13:29;1.67;;;1.17;;
12052;SDS011;6087;48.982;12.064;2022-10-16T14:15:59;1.48;;;1.15;;
12052;SDS011;6087;48.982;12.064;2022-10-16T14:18:33;1.40;;;1.30;;
12052;SDS011;6087;48.982;12.064;2022-10-16T14:21:07;1.85;;;0.98;;
12052;SDS011;6087;48.982;12.064;2022-10-16T14:23:39;1.83;;;1.20;;
12052;SDS011;6087;48.982;12.064;2022-10-16T14:26:14;1.92;;;1.25;;
12052;SDS011;6087;48.982;12.064;2022-10-16T14:28:46;1.00;;;1.00;;
12052;SDS011;6087;48.982;12.064;2022-10-16T14:31:25;2.20;;;1.10;;
12052;SDS011;6087;48.982;12.064;2022-10-16T14:33:55;2.42;;;1.10;;
12052;SDS011;6087;48.982;12.064;2022-10-16T14:36:22;2.85;;;1.65;;
12052;SDS011;6087;48.982;12.064;2022-10-16T14:38:53;2.60;;;1.75;;
12052;SDS011;6087;48.982;12.064;2022-10-16T14:41:27;1.50;;;1.08;;
12052;SDS011;6087;48.982;12.064;2022-10-16T14:43:55;2.15;;;1.27;;
12052;SDS011;6087;48.982;12.064;2022-10-16T14:46:28;4.10;;;1.40;;
12052;SDS011;6087;48.982;12.064;2022-10-16T14:49:00;1.45;;;1.35;;
12052;SDS011;6087;48.982;12.064;2022-10-16T14:51:29;1.67;;;1.50;;
12052;SDS011;6087;48.982;12.064;2022-10-16T14:53:57;2.80;;;1.80;;
12052;SDS011;6087;48.982;12.064;2022-10-16T14:56:24;3.70;;;1.70;;
12052;SDS011;6087;48.982;12.064;2022-10-16T14:58:55;1.73;;;1.63;;
12052;SDS011;6087;48.982;12.064;2022-10-16T15:01:22;1.90;;;1.60;;
12052;SDS011;6087;48.982;12.064;2022-10-16T15:03:49;2.15;;;1.80;;
12052;SDS011;6087;48.982;12.064;2022-10-16T15:06:19;1.70;;;1.60;;
12052;SDS011;6087;48.982;12.064;2022-10-16T15:08:45;5.15;;;1.60;;
12052;SDS011;6087;48.982;12.064;2022-10-16T15:11:13;2.70;;;1.75;;
12052;SDS011;6087;48.982;12.064;2022-10-16T15:13:42;1.60;;;1.50;;
12052;SDS011;6087;48.982;12.064;2022-10-16T15:16:10;2.80;;;1.40;;
12052;SDS011;6087;48.982;12.064;2022-10-16T15:18:38;1.63;;;1.52;;
12052;SDS011;6087;48.982;12.064;2022-10-16T15:21:06;1.90;;;1.80;;